createdAt,value
2019-05-10T00:00:11.019Z,100.00
2019-05-10T00:02:57.274Z,100.00
2019-05-10T00:05:43.205Z,100.00
2019-05-10T00:08:29.441Z,100.00
2019-05-10T00:11:13.437Z,100.00
2019-05-10T00:13:44.298Z,100.00
2019-05-10T00:16:12.473Z,100.00
2019-05-10T00:18:40.469Z,100.00
2019-05-10T00:21:08.410Z,100.00
2019-05-10T00:23:36.289Z,100.00
2019-05-10T00:26:04.285Z,100.00
2019-05-10T00:28:32.222Z,100.00
2019-05-10T00:31:00.251Z,100.00
2019-05-10T00:33:28.148Z,100.00
2019-05-10T00:35:56.141Z,100.00
2019-05-10T00:38:25.524Z,100.00
2019-05-10T00:40:53.432Z,100.00
2019-05-10T00:43:21.313Z,100.00
2019-05-10T00:45:49.250Z,100.00
2019-05-10T00:48:17.180Z,100.00
2019-05-10T00:50:45.100Z,100.00
2019-05-10T00:53:13.075Z,100.00
2019-05-10T00:55:40.999Z,100.00
2019-05-10T00:58:08.897Z,100.00
2019-05-10T01:00:36.944Z,100.00
2019-05-10T01:03:04.952Z,100.00
2019-05-10T01:05:32.878Z,100.00
2019-05-10T01:08:00.755Z,100.00
2019-05-10T01:10:28.700Z,100.00
2019-05-10T01:12:56.576Z,100.00
2019-05-10T01:15:24.548Z,100.00
2019-05-10T01:17:52.503Z,100.00
2019-05-10T01:20:20.565Z,100.00
2019-05-10T01:22:48.504Z,100.00
2019-05-10T01:25:16.512Z,100.00
2019-05-10T01:27:44.476Z,100.00
2019-05-10T01:30:12.648Z,100.00
2019-05-10T01:32:40.648Z,100.00
2019-05-10T01:35:08.604Z,100.00
2019-05-10T01:37:36.509Z,100.00
2019-05-10T01:40:04.853Z,100.00
2019-05-10T01:42:32.832Z,100.00
2019-05-10T01:45:00.726Z,100.00
2019-05-10T01:47:28.645Z,100.00
2019-05-10T01:49:56.627Z,100.00
2019-05-10T01:52:24.530Z,100.00
2019-05-10T01:54:52.412Z,100.00
2019-05-10T01:57:20.329Z,100.00
2019-05-10T01:59:48.296Z,100.00
2019-05-10T02:02:16.237Z,100.00
2019-05-10T02:04:44.195Z,100.00
2019-05-10T02:07:12.121Z,100.00
2019-05-10T02:09:40.009Z,100.00
2019-05-10T02:12:07.985Z,100.00
2019-05-10T02:14:35.907Z,100.00
2019-05-10T02:17:03.962Z,100.00
2019-05-10T02:19:31.932Z,100.00
2019-05-10T02:21:59.949Z,100.00
2019-05-10T02:24:27.870Z,100.00
2019-05-10T02:26:55.792Z,100.00
2019-05-10T02:29:23.692Z,100.00
2019-05-10T02:31:51.601Z,100.00
2019-05-10T02:34:19.521Z,100.00
2019-05-10T02:36:47.418Z,100.00
2019-05-10T02:39:15.332Z,100.00
2019-05-10T02:41:43.225Z,100.00
2019-05-10T02:44:11.155Z,100.00
2019-05-10T02:46:39.038Z,100.00
2019-05-10T02:49:06.969Z,100.00
2019-05-10T02:51:34.871Z,100.00
2019-05-10T02:54:02.882Z,100.00
2019-05-10T02:56:31.740Z,100.00
2019-05-10T02:59:00.228Z,100.00
2019-05-10T03:01:30.130Z,100.00
2019-05-10T03:04:01.591Z,100.00
2019-05-10T03:06:31.507Z,100.00
2019-05-10T03:09:00.929Z,100.00
2019-05-10T03:11:30.366Z,100.00
2019-05-10T03:13:59.888Z,100.00
2019-05-10T03:16:29.308Z,100.00
2019-05-10T03:18:57.877Z,100.00
2019-05-10T03:21:27.276Z,100.00
2019-05-10T03:23:55.242Z,100.00
2019-05-10T03:26:23.138Z,100.00
2019-05-10T03:28:51.591Z,100.00
2019-05-10T03:31:19.561Z,100.00
2019-05-10T03:33:54.937Z,100.00
2019-05-10T03:36:17.237Z,100.00
2019-05-10T03:38:45.837Z,100.00
2019-05-10T03:41:13.890Z,100.00
2019-05-10T03:43:41.752Z,100.00
2019-05-10T03:46:09.741Z,100.00
2019-05-10T03:48:37.707Z,100.00
2019-05-10T03:51:05.776Z,100.00
2019-05-10T03:53:33.667Z,100.00
2019-05-10T03:56:01.661Z,100.00
2019-05-10T03:58:29.548Z,100.00
2019-05-10T04:00:57.494Z,100.00
2019-05-10T04:03:25.464Z,100.00
2019-05-10T04:05:53.471Z,100.00
2019-05-10T04:08:21.453Z,100.00
2019-05-10T04:10:49.372Z,100.00
2019-05-10T04:13:17.278Z,100.00
2019-05-10T04:15:46.018Z,100.00
2019-05-10T04:18:13.970Z,100.00
2019-05-10T04:20:41.915Z,100.00
2019-05-10T04:23:09.813Z,100.00
2019-05-10T04:25:37.774Z,100.00
2019-05-10T04:28:05.875Z,100.00
2019-05-10T04:30:34.254Z,100.00
2019-05-10T04:33:02.205Z,100.00
2019-05-10T04:35:31.609Z,100.00
2019-05-10T04:37:59.502Z,100.00
2019-05-10T04:40:27.478Z,100.00
2019-05-10T04:42:55.457Z,100.00
2019-05-10T04:45:24.418Z,100.00
2019-05-10T04:47:52.282Z,100.00
2019-05-10T04:50:20.189Z,100.00
2019-05-10T04:52:48.062Z,100.00
2019-05-10T04:55:15.977Z,100.00
2019-05-10T04:57:50.609Z,100.00
2019-05-10T05:00:15.538Z,100.00
2019-05-10T05:02:43.570Z,100.00
2019-05-10T05:05:11.518Z,100.00
2019-05-10T05:07:39.493Z,100.00
2019-05-10T05:10:07.592Z,100.00
2019-05-10T05:12:35.529Z,100.00
2019-05-10T05:15:03.640Z,100.00
2019-05-10T05:17:31.573Z,100.00
2019-05-10T05:19:59.460Z,100.00
2019-05-10T05:22:27.334Z,100.00
2019-05-10T05:25:01.156Z,100.00
2019-05-10T05:27:24.954Z,100.00
2019-05-10T05:29:52.839Z,100.00
2019-05-10T05:32:20.737Z,100.00
2019-05-10T05:34:48.702Z,100.00
2019-05-10T05:37:16.613Z,100.00
2019-05-10T05:39:44.563Z,100.00
2019-05-10T05:42:12.545Z,100.00
2019-05-10T05:44:40.513Z,100.00
2019-05-10T05:47:08.524Z,100.00
2019-05-10T05:49:36.413Z,100.00
2019-05-10T05:52:04.420Z,100.00
2019-05-10T05:54:32.316Z,100.00
2019-05-10T05:57:00.224Z,100.00
2019-05-10T05:59:28.118Z,100.00
2019-05-10T06:02:00.600Z,100.00
2019-05-10T06:04:25.660Z,100.00
2019-05-10T06:06:58.795Z,100.00
2019-05-10T06:09:23.388Z,100.00
2019-05-10T06:11:51.279Z,100.00
2019-05-10T06:14:19.253Z,100.00
2019-05-10T06:16:51.060Z,100.00
2019-05-10T06:19:20.471Z,100.00
2019-05-10T06:21:46.496Z,100.00
2019-05-10T06:24:15.908Z,100.00
2019-05-10T06:26:44.093Z,100.00
2019-05-10T06:29:17.343Z,100.00
2019-05-10T06:31:41.742Z,100.00
2019-05-10T06:34:09.712Z,100.00
2019-05-10T06:36:37.613Z,100.00
2019-05-10T06:39:07.143Z,100.00
2019-05-10T06:41:35.149Z,100.00
2019-05-10T06:44:03.054Z,100.00
2019-05-10T06:46:31.188Z,100.00
2019-05-10T06:49:07.252Z,100.00
2019-05-10T06:51:28.804Z,100.00
2019-05-10T06:53:56.808Z,100.00
2019-05-10T06:56:24.711Z,100.00
2019-05-10T06:58:52.715Z,100.00
2019-05-10T07:01:20.610Z,100.00
2019-05-10T07:03:48.533Z,100.00
2019-05-10T07:06:16.527Z,100.00
2019-05-10T07:08:45.986Z,100.00
2019-05-10T07:11:15.532Z,100.00
2019-05-10T07:13:47.075Z,100.00
2019-05-10T07:16:14.529Z,100.00
2019-05-10T07:18:42.828Z,100.00
2019-05-10T07:21:10.704Z,100.00
2019-05-10T07:23:39.101Z,100.00
2019-05-10T07:26:09.930Z,100.00
2019-05-10T07:28:38.014Z,100.00
2019-05-10T07:31:05.997Z,100.00
2019-05-10T07:33:37.361Z,100.00
2019-05-10T07:36:03.677Z,100.00
2019-05-10T07:38:32.951Z,100.00
2019-05-10T07:41:01.104Z,100.00
2019-05-10T07:43:29.273Z,100.00
2019-05-10T07:45:58.510Z,100.00
2019-05-10T07:48:26.978Z,100.00
2019-05-10T07:50:54.993Z,100.00
2019-05-10T07:53:25.167Z,99.42
2019-05-10T07:55:52.556Z,99.47
2019-05-10T07:58:20.452Z,99.07
2019-05-10T08:00:48.407Z,100.00
2019-05-10T08:03:22.784Z,100.00
2019-05-10T08:05:46.239Z,97.20
2019-05-10T08:08:15.636Z,98.24
2019-05-10T08:10:43.569Z,95.26
2019-05-10T08:13:15.446Z,93.58
2019-05-10T08:15:41.096Z,94.61
2019-05-10T08:18:09.866Z,95.20
2019-05-10T08:20:49.313Z,97.54
2019-05-10T08:23:07.647Z,94.21
2019-05-10T08:25:40.989Z,88.52
2019-05-10T08:28:07.926Z,89.13
2019-05-10T08:30:42.618Z,86.23
2019-05-10T08:33:09.957Z,87.41
2019-05-10T08:35:38.907Z,87.31
2019-05-10T08:38:06.670Z,86.80
2019-05-10T08:40:37.831Z,88.10
2019-05-10T08:43:08.510Z,87.98
2019-05-10T08:45:38.639Z,89.54
2019-05-10T08:48:06.928Z,94.37
2019-05-10T08:50:48.403Z,95.71
2019-05-10T08:53:10.572Z,96.55
2019-05-10T08:55:32.631Z,95.89
2019-05-10T08:58:02.807Z,94.80
2019-05-10T09:00:45.069Z,91.49
2019-05-10T09:03:00.965Z,91.68
2019-05-10T09:05:31.923Z,93.68
2019-05-10T09:08:02.441Z,92.87
2019-05-10T09:10:28.793Z,90.48
2019-05-10T09:12:58.179Z,83.59
2019-05-10T09:15:26.408Z,84.48
2019-05-10T09:17:58.342Z,77.08
2019-05-10T09:20:26.467Z,81.25
2019-05-10T09:22:53.732Z,77.46
2019-05-10T09:25:29.170Z,83.42
2019-05-10T09:27:53.120Z,82.92
2019-05-10T09:30:29.165Z,82.46
2019-05-10T09:33:00.935Z,83.18
2019-05-10T09:35:26.820Z,84.66
2019-05-10T09:37:58.547Z,80.94
2019-05-10T09:40:24.521Z,82.94
2019-05-10T09:42:52.518Z,78.63
2019-05-10T09:45:22.172Z,83.01
2019-05-10T09:47:50.153Z,83.26
2019-05-10T09:50:18.221Z,76.85
2019-05-10T09:52:46.116Z,81.71
2019-05-10T09:55:14.941Z,79.11
2019-05-10T09:57:43.548Z,74.92
2019-05-10T10:00:11.948Z,73.32
2019-05-10T10:02:40.688Z,80.52
2019-05-10T10:05:09.219Z,75.67
2019-05-10T10:07:37.453Z,74.44
2019-05-10T10:10:07.346Z,79.90
2019-05-10T10:12:37.256Z,74.09
2019-05-10T10:15:09.338Z,71.63
2019-05-10T10:17:40.295Z,76.28
2019-05-10T10:20:05.026Z,78.55
2019-05-10T10:22:32.993Z,75.84
2019-05-10T10:25:00.971Z,74.37
2019-05-10T10:27:34.385Z,75.14
2019-05-10T10:29:58.612Z,74.57
2019-05-10T10:32:31.375Z,74.37
2019-05-10T10:34:57.812Z,70.59
2019-05-10T10:37:29.107Z,72.21
2019-05-10T10:40:03.075Z,72.14
2019-05-10T10:42:25.171Z,72.96
2019-05-10T10:44:53.101Z,70.88
2019-05-10T10:47:22.913Z,70.92
2019-05-10T10:49:50.817Z,67.57
2019-05-10T10:52:18.717Z,72.06
2019-05-10T10:54:47.984Z,69.67
2019-05-10T10:57:18.020Z,67.58
2019-05-10T10:59:47.545Z,66.75
2019-05-10T11:02:31.568Z,69.45
2019-05-10T11:04:46.701Z,74.72
2019-05-10T11:07:14.957Z,69.58
2019-05-10T11:09:42.825Z,67.20
2019-05-10T11:12:14.733Z,67.64
2019-05-10T11:14:45.150Z,66.36
2019-05-10T11:17:11.178Z,70.69
2019-05-10T11:19:41.587Z,71.42
2019-05-10T11:22:09.827Z,75.53
2019-05-10T11:24:38.535Z,70.36
2019-05-10T11:27:07.249Z,72.71
2019-05-10T11:29:36.222Z,72.69
2019-05-10T11:32:15.377Z,72.15
2019-05-10T11:34:37.470Z,67.05
2019-05-10T11:37:03.623Z,68.79
2019-05-10T11:39:33.217Z,64.43
2019-05-10T11:42:06.917Z,67.81
2019-05-10T11:44:31.661Z,70.01
2019-05-10T11:47:01.505Z,68.50
2019-05-10T11:49:30.738Z,65.35
2019-05-10T11:52:01.554Z,70.34
2019-05-10T11:54:28.629Z,65.41
2019-05-10T11:56:58.535Z,68.65
2019-05-10T11:59:27.332Z,66.17
2019-05-10T12:01:59.431Z,71.39
2019-05-10T12:04:36.436Z,66.82
2019-05-10T12:06:55.137Z,66.75
2019-05-10T12:09:24.544Z,67.00
2019-05-10T12:11:56.425Z,67.19
2019-05-10T12:14:22.284Z,64.53
2019-05-10T12:16:54.247Z,65.28
2019-05-10T12:19:21.356Z,65.52
2019-05-10T12:21:52.546Z,71.51
2019-05-10T12:24:33.613Z,69.82
2019-05-10T12:27:25.766Z,67.37
2019-05-10T12:29:18.544Z,65.46
2019-05-10T12:31:47.367Z,66.03
2019-05-10T12:34:16.120Z,65.37
2019-05-10T12:36:44.757Z,63.50
2019-05-10T12:39:12.673Z,69.88
2019-05-10T12:41:48.354Z,68.04
2019-05-10T12:44:11.242Z,64.62
2019-05-10T12:46:42.115Z,62.28
2019-05-10T12:49:08.796Z,62.81
2019-05-10T12:51:36.697Z,60.26
2019-05-10T12:54:04.682Z,61.37
2019-05-10T12:56:35.109Z,68.04
2019-05-10T12:59:02.238Z,68.08
2019-05-10T13:01:31.973Z,69.95
2019-05-10T13:04:01.989Z,66.69
2019-05-10T13:06:29.637Z,71.08
2019-05-10T13:08:57.533Z,69.36
2019-05-10T13:11:27.091Z,70.19
2019-05-10T13:13:55.209Z,63.86
2019-05-10T13:16:23.102Z,67.04
2019-05-10T13:18:52.715Z,68.42
2019-05-10T13:21:22.978Z,69.90
2019-05-10T13:23:53.400Z,74.26
2019-05-10T13:26:20.050Z,75.31
2019-05-10T13:28:47.989Z,72.79
2019-05-10T13:31:15.885Z,72.60
2019-05-10T13:33:44.388Z,73.70
2019-05-10T13:36:12.514Z,71.71
2019-05-10T13:38:43.133Z,75.12
2019-05-10T13:41:10.231Z,75.51
2019-05-10T13:43:38.121Z,75.09
2019-05-10T13:46:06.100Z,77.11
2019-05-10T13:48:33.985Z,77.83
2019-05-10T13:51:01.968Z,82.64
2019-05-10T13:53:29.908Z,83.99
2019-05-10T13:55:57.825Z,85.02
2019-05-10T13:58:25.797Z,81.68
2019-05-10T14:00:53.840Z,81.17
2019-05-10T14:03:21.675Z,76.61
2019-05-10T14:05:49.618Z,76.27
2019-05-10T14:08:17.512Z,78.98
2019-05-10T14:10:49.194Z,78.14
2019-05-10T14:13:16.870Z,78.47
2019-05-10T14:15:44.735Z,79.03
2019-05-10T14:18:12.768Z,78.97
2019-05-10T14:20:40.735Z,80.15
2019-05-10T14:23:08.705Z,81.03
2019-05-10T14:25:38.739Z,79.62
2019-05-10T14:28:09.597Z,78.64
2019-05-10T14:30:35.980Z,81.50
2019-05-10T14:33:08.833Z,85.62
2019-05-10T14:35:33.639Z,81.76
2019-05-10T14:38:08.253Z,85.91
2019-05-10T14:40:31.189Z,88.36
2019-05-10T14:42:59.086Z,87.84
2019-05-10T14:45:27.007Z,90.16
2019-05-10T14:47:55.026Z,86.98
2019-05-10T14:50:26.301Z,91.91
2019-05-10T14:52:52.617Z,91.04
2019-05-10T14:55:20.577Z,94.57
2019-05-10T14:57:48.544Z,93.02
2019-05-10T15:00:16.624Z,94.41
2019-05-10T15:02:44.540Z,92.77
2019-05-10T15:05:15.803Z,95.10
2019-05-10T15:07:42.156Z,90.52
2019-05-10T15:10:10.117Z,86.28
2019-05-10T15:12:38.039Z,86.06
2019-05-10T15:15:06.630Z,85.25
2019-05-10T15:17:34.588Z,85.84
2019-05-10T15:20:02.536Z,83.68
2019-05-10T15:22:30.821Z,82.20
2019-05-10T15:24:58.704Z,82.01
2019-05-10T15:27:26.624Z,78.90
2019-05-10T15:29:58.765Z,77.85
2019-05-10T15:32:24.117Z,80.58
2019-05-10T15:35:05.356Z,81.90
2019-05-10T15:37:21.637Z,77.42
2019-05-10T15:39:49.628Z,79.04
2019-05-10T15:42:17.561Z,81.28
2019-05-10T15:44:45.466Z,81.88
2019-05-10T15:47:20.015Z,79.64
2019-05-10T15:49:43.019Z,80.29
2019-05-10T15:52:17.570Z,78.64
2019-05-10T15:54:44.748Z,80.28
2019-05-10T15:57:14.454Z,79.82
2019-05-10T15:59:39.877Z,77.27
2019-05-10T16:02:07.850Z,76.25
2019-05-10T16:04:35.785Z,78.25
2019-05-10T16:07:03.819Z,80.63
2019-05-10T16:09:31.788Z,78.63
2019-05-10T16:12:01.920Z,82.62
2019-05-10T16:14:33.033Z,75.92
2019-05-10T16:16:58.974Z,74.26
2019-05-10T16:19:26.885Z,76.00
2019-05-10T16:21:58.054Z,75.13
2019-05-10T16:24:26.352Z,75.18
2019-05-10T16:26:54.590Z,75.51
2019-05-10T16:29:23.746Z,76.05
2019-05-10T16:31:51.630Z,72.90
2019-05-10T16:34:19.573Z,77.02
2019-05-10T16:36:47.451Z,78.98
2019-05-10T16:39:15.521Z,74.04
2019-05-10T16:41:43.457Z,76.35
2019-05-10T16:44:11.528Z,76.91
2019-05-10T16:46:39.429Z,71.69
2019-05-10T16:49:10.156Z,72.55
2019-05-10T16:51:37.072Z,74.49
2019-05-10T16:54:05.084Z,74.21
2019-05-10T16:56:33.070Z,75.88
2019-05-10T16:59:01.008Z,74.53
2019-05-10T17:01:28.892Z,75.37
2019-05-10T17:04:00.009Z,73.54
2019-05-10T17:06:26.777Z,73.93
2019-05-10T17:08:54.703Z,72.20
2019-05-10T17:11:22.617Z,73.84
2019-05-10T17:13:50.572Z,74.63
2019-05-10T17:16:18.903Z,75.93
2019-05-10T17:18:49.841Z,75.76
2019-05-10T17:21:16.600Z,76.55
2019-05-10T17:23:46.851Z,74.77
2019-05-10T17:26:14.228Z,73.21
2019-05-10T17:28:42.138Z,74.66
2019-05-10T17:31:10.068Z,73.83
2019-05-10T17:33:42.788Z,74.63
2019-05-10T17:36:08.836Z,76.44
2019-05-10T17:38:37.149Z,77.99
2019-05-10T17:41:05.226Z,75.29
2019-05-10T17:43:33.205Z,71.89
2019-05-10T17:46:01.193Z,75.08
2019-05-10T17:48:29.183Z,74.04
2019-05-10T17:50:57.164Z,75.74
2019-05-10T17:53:25.361Z,76.98
2019-05-10T17:55:55.739Z,77.53
2019-05-10T17:58:27.974Z,76.51
2019-05-10T18:00:52.685Z,77.31
2019-05-10T18:03:20.777Z,79.27
2019-05-10T18:05:53.138Z,79.27
2019-05-10T18:08:18.636Z,79.90
2019-05-10T18:10:46.525Z,81.97
2019-05-10T18:13:14.435Z,78.11
2019-05-10T18:15:42.296Z,78.61
2019-05-10T18:18:10.265Z,79.13
2019-05-10T18:20:42.683Z,78.18
2019-05-10T18:23:07.868Z,80.90
2019-05-10T18:25:35.921Z,78.09
2019-05-10T18:28:03.932Z,81.78
2019-05-10T18:30:33.407Z,81.32
2019-05-10T18:33:06.699Z,80.65
2019-05-10T18:35:33.180Z,80.01
2019-05-10T18:38:02.492Z,81.69
2019-05-10T18:40:31.588Z,84.31
2019-05-10T18:43:03.843Z,87.67
2019-05-10T18:45:30.406Z,88.70
2019-05-10T18:47:58.353Z,90.57
2019-05-10T18:50:26.357Z,91.43
2019-05-10T18:52:54.312Z,93.15
2019-05-10T18:55:22.214Z,94.03
2019-05-10T18:57:52.404Z,94.26
2019-05-10T19:00:22.986Z,95.30
2019-05-10T19:02:55.052Z,94.61
2019-05-10T19:05:19.719Z,94.52
2019-05-10T19:08:02.699Z,95.22
2019-05-10T19:10:19.131Z,96.03
2019-05-10T19:12:47.678Z,97.69
2019-05-10T19:15:16.706Z,97.67
2019-05-10T19:17:45.862Z,98.69
2019-05-10T19:20:16.346Z,99.82
2019-05-10T19:22:44.127Z,100.00
2019-05-10T19:25:14.402Z,100.00
2019-05-10T19:27:44.143Z,100.00
2019-05-10T19:30:11.834Z,100.00
2019-05-10T19:32:39.760Z,100.00
2019-05-10T19:35:08.205Z,100.00
2019-05-10T19:37:36.177Z,100.00
2019-05-10T19:40:04.388Z,100.00
2019-05-10T19:42:37.091Z,100.00
2019-05-10T19:45:01.971Z,100.00
2019-05-10T19:47:30.032Z,100.00
2019-05-10T19:49:58.049Z,100.00
2019-05-10T19:52:27.773Z,100.00
2019-05-10T19:54:55.717Z,100.00
2019-05-10T19:57:23.706Z,100.00
2019-05-10T19:59:51.622Z,100.00
2019-05-10T20:02:19.629Z,100.00
2019-05-10T20:04:47.653Z,100.00
2019-05-10T20:07:15.641Z,100.00
2019-05-10T20:09:43.654Z,100.00
2019-05-10T20:12:11.545Z,100.00
2019-05-10T20:14:39.526Z,100.00
2019-05-10T20:17:07.481Z,100.00
2019-05-10T20:19:35.463Z,100.00
2019-05-10T20:22:03.505Z,100.00
2019-05-10T20:24:31.512Z,100.00
2019-05-10T20:27:19.494Z,100.00
2019-05-10T20:29:47.684Z,100.00
2019-05-10T20:32:16.009Z,100.00
2019-05-10T20:34:47.354Z,100.00
2019-05-10T20:41:12.874Z,100.00
2019-05-10T20:43:53.494Z,100.00
2019-05-10T20:46:22.269Z,100.00
2019-05-10T20:48:50.329Z,100.00
2019-05-10T20:51:19.113Z,100.00
2019-05-10T20:53:48.181Z,100.00
2019-05-10T20:56:16.645Z,100.00
2019-05-10T20:58:44.830Z,100.00
2019-05-10T21:01:19.887Z,100.00
2019-05-10T21:03:58.196Z,100.00
2019-05-10T21:06:43.452Z,100.00
2019-05-10T21:36:45.261Z,100.00
2019-05-10T21:39:20.409Z,100.00
2019-05-10T21:41:48.455Z,100.00
2019-05-10T21:44:16.636Z,100.00
2019-05-10T21:46:44.931Z,100.00
2019-05-10T21:49:12.947Z,100.00
2019-05-10T21:51:41.986Z,100.00
2019-05-10T21:54:10.042Z,100.00
2019-05-10T21:56:38.271Z,100.00
2019-05-10T21:59:06.492Z,100.00
2019-05-10T22:01:34.625Z,100.00
2019-05-10T22:04:02.711Z,100.00
2019-05-10T22:06:30.745Z,100.00
2019-05-10T22:08:58.776Z,100.00
2019-05-10T22:11:26.769Z,100.00
2019-05-10T22:13:54.717Z,100.00
2019-05-10T22:16:22.632Z,100.00
2019-05-10T22:18:59.013Z,100.00
2019-05-10T22:21:26.981Z,100.00
2019-05-10T22:23:54.951Z,100.00
2019-05-10T22:26:22.937Z,100.00
2019-05-10T22:28:55.758Z,100.00
2019-05-10T22:31:24.805Z,100.00
2019-05-10T22:33:52.819Z,100.00
2019-05-10T22:36:20.792Z,100.00
2019-05-10T22:39:05.637Z,100.00
2019-05-10T22:41:52.886Z,100.00
2019-05-10T22:43:49.518Z,100.00
2019-05-10T22:46:18.668Z,100.00
2019-05-10T22:48:47.059Z,100.00
2019-05-10T22:51:15.210Z,100.00
2019-05-10T22:53:53.199Z,100.00
2019-05-10T22:56:15.727Z,100.00
2019-05-10T22:58:44.376Z,100.00
2019-05-10T23:01:12.366Z,100.00
2019-05-10T23:03:40.750Z,100.00
2019-05-10T23:06:08.825Z,100.00
2019-05-10T23:08:38.827Z,100.00
2019-05-10T23:11:07.192Z,100.00
2019-05-10T23:13:37.567Z,100.00
2019-05-10T23:16:09.936Z,100.00
2019-05-10T23:21:47.345Z,100.00
2019-05-10T23:24:17.399Z,100.00
2019-05-10T23:26:45.722Z,100.00
2019-05-10T23:29:19.385Z,100.00
2019-05-10T23:31:47.549Z,100.00
2019-05-10T23:34:17.777Z,100.00
2019-05-10T23:37:26.038Z,100.00
2019-05-10T23:39:56.839Z,100.00
2019-05-10T23:42:26.158Z,100.00
2019-05-10T23:44:54.407Z,100.00
2019-05-10T23:47:24.914Z,100.00
2019-05-10T23:49:53.876Z,100.00
2019-05-10T23:52:22.410Z,100.00
